createdAt,value
2018-08-23T00:01:23.815Z,81.10
2018-08-23T00:03:52.780Z,83.00
2018-08-23T00:06:21.250Z,83.90
2018-08-23T00:08:50.555Z,84.20
2018-08-23T00:11:26.427Z,83.50
2018-08-23T00:13:55.788Z,82.70
2018-08-23T00:16:59.916Z,81.50
2018-08-23T00:19:28.472Z,82.90
2018-08-23T00:21:57.002Z,83.60
2018-08-23T00:24:25.482Z,83.20
2018-08-23T00:26:55.415Z,83.00
2018-08-23T00:29:28.204Z,82.90
2018-08-23T00:31:58.992Z,81.40
2018-08-23T00:34:31.811Z,81.60
2018-08-23T00:37:01.048Z,82.60
2018-08-23T00:39:30.113Z,81.70
2018-08-23T00:42:19.287Z,82.00
2018-08-23T00:44:58.723Z,82.60
2018-08-23T00:47:31.100Z,83.70
2018-08-23T00:49:59.840Z,84.20
2018-08-23T00:52:41.654Z,83.90
2018-08-23T00:55:19.773Z,83.00
2018-08-23T00:57:48.332Z,82.30
2018-08-23T01:00:18.137Z,82.80
2018-08-23T01:02:50.240Z,84.10
2018-08-23T01:05:24.233Z,84.40
2018-08-23T01:07:52.929Z,84.90
2018-08-23T01:10:21.500Z,85.60
2018-08-23T01:13:01.221Z,86.20
2018-08-23T01:15:30.543Z,86.70
2018-08-23T01:18:17.586Z,86.70
2018-08-23T01:20:47.193Z,85.80
2018-08-23T01:23:15.800Z,84.30
2018-08-23T01:25:45.476Z,83.70
2018-08-23T01:28:13.944Z,82.50
2018-08-23T01:30:43.039Z,82.40
2018-08-23T01:33:20.336Z,82.70
2018-08-23T01:35:50.144Z,82.40
2018-08-23T01:38:19.100Z,81.70
2018-08-23T01:40:47.521Z,82.40
2018-08-23T01:43:16.034Z,83.40
2018-08-23T01:45:44.523Z,83.20
2018-08-23T01:48:13.015Z,83.10
2018-08-23T01:50:41.536Z,84.10
2018-08-23T01:53:10.004Z,84.60
2018-08-23T01:55:38.449Z,84.90
2018-08-23T01:58:06.909Z,84.80
2018-08-23T02:00:36.379Z,84.30
2018-08-23T02:03:05.009Z,83.40
2018-08-23T02:05:37.741Z,83.90
2018-08-23T02:08:06.377Z,84.80
2018-08-23T02:10:34.844Z,84.40
2018-08-23T02:13:03.392Z,83.80
2018-08-23T02:16:03.266Z,83.60
2018-08-23T02:18:32.329Z,83.80
2018-08-23T02:21:07.966Z,83.20
2018-08-23T02:23:44.630Z,83.10
2018-08-23T02:26:13.560Z,82.80
2018-08-23T02:28:44.686Z,82.80
2018-08-23T02:31:13.176Z,83.00
2018-08-23T02:33:41.661Z,84.40
2018-08-23T02:36:16.857Z,84.30
2018-08-23T02:38:50.397Z,83.40
2018-08-23T02:41:18.969Z,82.70
2018-08-23T02:43:47.665Z,83.50
2018-08-23T02:46:16.469Z,83.10
2018-08-23T02:48:45.785Z,82.90
2018-08-23T02:51:14.300Z,82.40
2018-08-23T02:53:44.955Z,82.20
2018-08-23T02:56:16.164Z,81.70
2018-08-23T02:58:51.938Z,82.80
2018-08-23T03:01:20.472Z,82.90
2018-08-23T03:04:00.603Z,82.40
2018-08-23T03:06:49.414Z,82.00
2018-08-23T03:09:22.054Z,82.10
2018-08-23T03:11:51.668Z,82.90
2018-08-23T03:14:21.272Z,83.60
2018-08-23T03:16:53.233Z,84.20
2018-08-23T03:19:21.665Z,85.30
2018-08-23T03:21:58.739Z,84.60
2018-08-23T03:24:27.225Z,83.90
2018-08-23T03:26:55.732Z,83.40
2018-08-23T03:29:24.316Z,83.50
2018-08-23T03:31:52.738Z,83.10
2018-08-23T03:34:21.176Z,82.90
2018-08-23T03:36:49.640Z,83.60
2018-08-23T03:39:18.575Z,84.30
2018-08-23T03:41:47.000Z,84.80
2018-08-23T03:44:25.715Z,84.40
2018-08-23T03:46:55.844Z,83.70
2018-08-23T03:49:28.949Z,85.30
2018-08-23T03:51:57.381Z,85.50
2018-08-23T03:54:25.829Z,85.20
2018-08-23T03:57:11.416Z,84.80
2018-08-23T03:59:42.711Z,84.50
2018-08-23T04:02:11.557Z,85.10
2018-08-23T04:04:40.260Z,85.90
2018-08-23T04:07:08.913Z,86.30
2018-08-23T04:09:37.538Z,85.80
2018-08-23T04:12:06.925Z,85.20
2018-08-23T04:14:35.425Z,84.70
2018-08-23T04:17:09.434Z,84.90
2018-08-23T04:19:41.504Z,85.50
2018-08-23T04:22:09.968Z,85.20
2018-08-23T04:24:55.264Z,85.00
2018-08-23T04:27:23.684Z,85.40
2018-08-23T04:29:52.121Z,86.00
2018-08-23T04:32:28.221Z,86.00
2018-08-23T04:34:58.293Z,85.80
2018-08-23T04:37:27.419Z,85.20
2018-08-23T04:40:01.298Z,85.50
2018-08-23T04:42:29.760Z,85.90
2018-08-23T04:44:58.894Z,86.40
2018-08-23T04:47:27.503Z,86.50
2018-08-23T04:49:55.974Z,85.40
2018-08-23T04:52:24.459Z,85.40
2018-08-23T04:54:52.862Z,85.60
2018-08-23T04:57:21.333Z,86.10
2018-08-23T04:59:49.780Z,86.40
2018-08-23T05:02:18.585Z,86.40
2018-08-23T05:04:47.160Z,86.30
2018-08-23T05:07:15.766Z,86.10
2018-08-23T05:09:44.800Z,86.40
2018-08-23T05:12:13.322Z,86.40
2018-08-23T05:14:41.739Z,86.10
2018-08-23T05:17:10.212Z,86.20
2018-08-23T05:19:38.705Z,86.00
2018-08-23T05:22:07.221Z,86.10
2018-08-23T05:24:35.674Z,86.30
2018-08-23T05:27:04.563Z,86.30
2018-08-23T05:29:32.960Z,86.10
2018-08-23T05:32:01.446Z,85.50
2018-08-23T05:34:29.996Z,85.50
2018-08-23T05:36:58.499Z,85.20
2018-08-23T05:40:01.563Z,84.10
2018-08-23T05:42:45.618Z,84.20
2018-08-23T05:45:14.078Z,82.70
2018-08-23T05:47:42.735Z,82.70
2018-08-23T05:50:11.399Z,82.30
2018-08-23T05:52:39.884Z,82.70
2018-08-23T05:55:08.493Z,82.70
2018-08-23T05:57:37.297Z,82.40
2018-08-23T06:00:05.832Z,81.90
2018-08-23T06:02:34.357Z,82.60
2018-08-23T06:05:03.776Z,82.10
2018-08-23T06:07:32.264Z,81.40
2018-08-23T06:10:00.725Z,81.00
2018-08-23T06:12:33.037Z,81.00
2018-08-23T06:15:01.677Z,81.20
2018-08-23T06:17:30.189Z,81.30
2018-08-23T06:19:58.620Z,79.10
2018-08-23T06:22:27.217Z,78.10
2018-08-23T06:24:55.760Z,74.50
2018-08-23T06:27:24.241Z,75.60
2018-08-23T06:29:52.664Z,73.40
2018-08-23T06:32:21.108Z,72.00
2018-08-23T06:34:51.200Z,65.50
2018-08-23T06:37:21.072Z,66.70
2018-08-23T06:39:49.553Z,66.20
2018-08-23T06:42:18.145Z,68.60
2018-08-23T06:44:54.066Z,68.80
2018-08-23T06:47:26.397Z,65.40
2018-08-23T06:49:55.564Z,65.30
2018-08-23T06:52:35.928Z,68.20
2018-08-23T06:55:05.146Z,67.40
2018-08-23T06:57:40.295Z,67.40
2018-08-23T07:00:09.249Z,67.00
2018-08-23T07:02:41.945Z,66.30
2018-08-23T07:05:11.056Z,67.20
2018-08-23T07:07:39.551Z,63.60
2018-08-23T07:10:08.022Z,66.20
2018-08-23T07:12:36.484Z,64.90
2018-08-23T07:15:05.435Z,64.60
2018-08-23T07:17:33.947Z,65.50
2018-08-23T07:20:04.504Z,63.70
2018-08-23T07:22:34.636Z,61.90
2018-08-23T07:25:03.058Z,58.30
2018-08-23T07:27:31.489Z,60.10
2018-08-23T07:30:00.680Z,60.20
2018-08-23T07:32:30.506Z,59.10
2018-08-23T07:35:11.033Z,60.00
2018-08-23T07:37:43.008Z,61.80
2018-08-23T07:40:12.869Z,62.30
2018-08-23T07:42:42.529Z,60.50
2018-08-23T07:45:11.748Z,61.10
2018-08-23T07:47:56.836Z,60.40
2018-08-23T07:50:26.065Z,60.30
2018-08-23T07:52:55.154Z,60.80
2018-08-23T07:55:23.558Z,61.70
2018-08-23T07:57:51.954Z,62.80
2018-08-23T08:00:37.924Z,62.00
2018-08-23T08:03:06.946Z,61.20
2018-08-23T08:05:38.320Z,59.60
2018-08-23T08:08:07.804Z,60.30
2018-08-23T08:10:41.016Z,60.90
2018-08-23T08:13:09.530Z,61.30
2018-08-23T08:15:37.999Z,61.40
2018-08-23T08:18:17.926Z,60.10
2018-08-23T08:20:53.311Z,61.20
2018-08-23T08:23:21.880Z,61.30
2018-08-23T08:25:50.450Z,60.90
2018-08-23T08:28:19.199Z,58.90
2018-08-23T08:30:48.582Z,54.00
2018-08-23T08:33:21.262Z,54.80
2018-08-23T08:35:49.827Z,54.10
2018-08-23T08:38:18.380Z,54.30
2018-08-23T08:40:48.134Z,52.50
2018-08-23T08:43:16.685Z,52.00
2018-08-23T08:45:45.154Z,51.60
2018-08-23T08:48:21.981Z,51.40
2018-08-23T08:51:06.070Z,51.10
2018-08-23T08:53:35.137Z,51.60
2018-08-23T08:56:03.624Z,51.20
2018-08-23T08:58:32.175Z,50.80
2018-08-23T09:01:00.636Z,50.80
2018-08-23T09:03:34.176Z,50.50
2018-08-23T09:06:05.076Z,49.60
2018-08-23T09:08:35.197Z,51.60
2018-08-23T09:11:03.872Z,51.20
2018-08-23T09:13:37.705Z,50.80
2018-08-23T09:16:11.955Z,50.30
2018-08-23T09:18:46.193Z,49.40
2018-08-23T09:21:14.651Z,48.70
2018-08-23T09:23:43.108Z,49.10
2018-08-23T09:26:11.653Z,51.20
2018-08-23T09:28:40.089Z,51.40
2018-08-23T09:31:08.583Z,51.00
2018-08-23T09:33:37.037Z,52.70
2018-08-23T09:36:05.579Z,53.30
2018-08-23T09:38:34.042Z,50.80
2018-08-23T09:41:02.515Z,52.00
2018-08-23T09:43:33.074Z,52.80
2018-08-23T09:46:01.501Z,54.10
2018-08-23T09:48:29.944Z,55.90
2018-08-23T09:50:58.498Z,58.40
2018-08-23T09:53:27.103Z,61.00
2018-08-23T09:55:56.650Z,62.40
2018-08-23T09:58:30.491Z,61.10
2018-08-23T10:01:04.305Z,61.30
2018-08-23T10:03:38.008Z,63.40
2018-08-23T10:06:11.872Z,64.20
2018-08-23T10:08:46.635Z,64.10
2018-08-23T10:11:20.815Z,64.20
2018-08-23T10:13:54.530Z,65.00
2018-08-23T10:16:28.176Z,63.20
2018-08-23T10:19:00.660Z,64.50
2018-08-23T10:21:34.581Z,65.20
2018-08-23T10:24:14.374Z,66.60
2018-08-23T10:26:43.054Z,67.10
2018-08-23T10:29:11.469Z,64.20
2018-08-23T10:31:39.956Z,65.60
2018-08-23T10:34:08.416Z,65.40
2018-08-23T10:36:36.941Z,64.50
2018-08-23T10:39:08.561Z,63.60
2018-08-23T10:41:37.041Z,62.90
2018-08-23T10:44:05.829Z,65.50
2018-08-23T10:46:39.721Z,66.60
2018-08-23T10:49:08.204Z,68.20
2018-08-23T10:51:36.716Z,68.60
2018-08-23T10:54:06.016Z,67.40
2018-08-23T10:56:34.617Z,67.60
2018-08-23T10:59:03.167Z,66.10
2018-08-23T11:01:31.621Z,68.40
2018-08-23T11:04:04.315Z,68.90
2018-08-23T11:06:32.948Z,69.90
2018-08-23T11:09:06.805Z,70.10
2018-08-23T11:11:36.873Z,72.70
2018-08-23T11:14:10.684Z,72.00
2018-08-23T11:16:44.661Z,71.80
2018-08-23T11:19:18.528Z,72.90
2018-08-23T11:21:47.000Z,74.30
2018-08-23T11:24:15.612Z,73.00
2018-08-23T11:26:44.084Z,73.40
2018-08-23T11:29:13.455Z,75.40
2018-08-23T11:31:41.892Z,77.80
2018-08-23T11:34:10.946Z,78.30
2018-08-23T11:36:39.482Z,75.60
2018-08-23T11:39:09.180Z,72.10
2018-08-23T11:41:37.632Z,67.60
2018-08-23T11:44:06.255Z,67.50
2018-08-23T11:46:34.715Z,69.40
2018-08-23T11:49:03.191Z,71.20
2018-08-23T11:51:31.652Z,69.70
2018-08-23T11:54:00.298Z,67.60
2018-08-23T11:56:28.813Z,68.20
2018-08-23T11:58:57.625Z,66.90
2018-08-23T12:01:26.602Z,64.80
2018-08-23T12:03:55.172Z,67.90
2018-08-23T12:06:23.728Z,65.60
2018-08-23T12:08:52.124Z,64.20
2018-08-23T12:11:21.243Z,65.70
2018-08-23T12:13:50.951Z,64.00
2018-08-23T12:16:19.821Z,63.40
2018-08-23T12:18:48.784Z,61.90
2018-08-23T12:21:17.389Z,62.20
2018-08-23T12:23:45.865Z,62.60
2018-08-23T12:26:14.433Z,61.30
2018-08-23T12:28:48.083Z,60.30
2018-08-23T12:31:16.659Z,60.10
2018-08-23T12:33:45.725Z,62.00
2018-08-23T12:36:18.537Z,58.00
2018-08-23T12:38:52.514Z,57.10
2018-08-23T12:41:26.413Z,53.70
2018-08-23T12:43:54.863Z,54.90
2018-08-23T12:46:23.372Z,49.60
2018-08-23T12:48:56.718Z,49.80
2018-08-23T12:51:25.841Z,50.70
2018-08-23T12:53:54.714Z,54.70
2018-08-23T12:56:23.306Z,49.00
2018-08-23T12:58:51.915Z,50.70
2018-08-23T13:01:20.421Z,52.80
2018-08-23T13:03:48.927Z,52.50
2018-08-23T13:06:17.391Z,49.00
2018-08-23T13:08:45.876Z,50.80
2018-08-23T13:11:15.021Z,50.00
2018-08-23T13:13:45.072Z,47.90
2018-08-23T13:16:13.528Z,47.80
2018-08-23T13:18:42.049Z,50.00
2018-08-23T13:21:10.549Z,49.20
2018-08-23T13:23:43.234Z,48.30
2018-08-23T13:26:11.780Z,50.50
2018-08-23T13:28:41.550Z,49.30
2018-08-23T13:31:10.074Z,48.90
2018-08-23T13:33:38.588Z,48.00
2018-08-23T13:36:07.179Z,47.50
2018-08-23T13:38:35.624Z,47.80
2018-08-23T13:41:04.134Z,47.30
2018-08-23T13:43:32.670Z,48.50
2018-08-23T13:46:01.888Z,47.70
2018-08-23T13:48:30.506Z,48.20
2018-08-23T13:50:59.024Z,48.30
2018-08-23T13:53:27.538Z,48.70
2018-08-23T13:55:56.017Z,49.30
2018-08-23T13:58:24.651Z,48.50
2018-08-23T14:00:53.114Z,49.20
2018-08-23T14:03:21.782Z,49.00
2018-08-23T14:05:50.285Z,48.20
2018-08-23T14:08:18.809Z,48.90
2018-08-23T14:10:47.337Z,47.80
2018-08-23T14:13:15.873Z,48.50
2018-08-23T14:15:49.802Z,49.50
2018-08-23T14:18:18.331Z,47.70
2018-08-23T14:20:46.934Z,47.60
2018-08-23T14:23:15.422Z,47.40
2018-08-23T14:25:43.900Z,48.70
2018-08-23T14:28:12.424Z,48.30
2018-08-23T14:30:41.156Z,48.00
2018-08-23T14:33:09.635Z,48.10
2018-08-23T14:35:38.199Z,48.20
2018-08-23T14:38:06.684Z,46.00
2018-08-23T14:40:35.249Z,46.20
2018-08-23T14:43:03.711Z,48.00
2018-08-23T14:45:33.485Z,48.30
2018-08-23T14:48:07.274Z,48.80
2018-08-23T14:50:36.633Z,49.50
2018-08-23T14:53:06.018Z,49.00
2018-08-23T14:55:39.852Z,48.70
2018-08-23T14:58:09.906Z,48.90
2018-08-23T15:00:38.413Z,49.20
2018-08-23T15:03:07.249Z,49.20
2018-08-23T15:05:36.112Z,50.00
2018-08-23T15:08:04.644Z,49.20
2018-08-23T15:10:33.141Z,49.60
2018-08-23T15:13:01.645Z,49.50
2018-08-23T15:15:35.412Z,49.80
2018-08-23T15:18:04.371Z,49.90
2018-08-23T15:20:32.872Z,49.30
2018-08-23T15:23:01.325Z,51.10
2018-08-23T15:25:29.808Z,50.00
2018-08-23T15:27:58.294Z,49.60
2018-08-23T15:30:26.727Z,50.50
2018-08-23T15:32:55.321Z,50.00
2018-08-23T15:35:23.738Z,50.30
2018-08-23T15:37:52.249Z,49.90
2018-08-23T15:40:20.885Z,48.20
2018-08-23T15:42:49.478Z,47.30
2018-08-23T15:45:18.652Z,48.10
2018-08-23T15:47:47.329Z,48.70
2018-08-23T15:50:15.920Z,47.60
2018-08-23T15:52:45.398Z,48.00
2018-08-23T15:55:14.750Z,48.00
2018-08-23T15:57:43.153Z,48.70
2018-08-23T16:00:11.650Z,50.30
2018-08-23T16:02:40.248Z,51.10
2018-08-23T16:05:08.920Z,53.60
2018-08-23T16:07:37.649Z,58.90
2018-08-23T16:10:07.775Z,57.60
2018-08-23T16:12:36.320Z,61.10
2018-08-23T16:15:10.110Z,61.30
2018-08-23T16:17:44.754Z,62.50
2018-08-23T16:20:18.725Z,63.50
2018-08-23T16:22:47.311Z,65.20
2018-08-23T16:25:15.892Z,64.90
2018-08-23T16:27:44.841Z,64.90
2018-08-23T16:30:14.418Z,66.80
2018-08-23T16:32:43.001Z,67.00
2018-08-23T16:35:11.569Z,67.30
2018-08-23T16:37:40.612Z,67.10
2018-08-23T16:40:09.024Z,68.40
2018-08-23T16:42:37.464Z,67.70
2018-08-23T16:45:05.982Z,69.40
2018-08-23T16:47:34.515Z,69.70
2018-08-23T16:50:03.142Z,66.80
2018-08-23T16:52:31.603Z,68.20
2018-08-23T16:55:00.154Z,68.10
2018-08-23T16:57:28.619Z,66.80
2018-08-23T16:59:57.117Z,66.30
2018-08-23T17:02:26.381Z,67.70
2018-08-23T17:04:54.989Z,66.70
2018-08-23T17:07:23.529Z,68.90
2018-08-23T17:09:52.033Z,67.80
2018-08-23T17:12:20.481Z,69.30
2018-08-23T17:14:49.148Z,70.80
2018-08-23T17:17:23.032Z,71.40
2018-08-23T17:19:51.468Z,69.40
2018-08-23T17:22:20.280Z,71.50
2018-08-23T17:24:48.786Z,72.10
2018-08-23T17:27:17.190Z,71.80
2018-08-23T17:29:45.790Z,74.10
2018-08-23T17:32:14.265Z,73.70
2018-08-23T17:34:42.696Z,75.30
2018-08-23T17:37:11.162Z,74.50
2018-08-23T17:39:39.716Z,73.00
2018-08-23T17:42:09.424Z,72.10
2018-08-23T17:44:37.961Z,75.00
2018-08-23T17:47:06.508Z,74.80
2018-08-23T17:49:34.964Z,76.50
2018-08-23T17:52:03.493Z,74.90
2018-08-23T17:54:31.937Z,72.40
2018-08-23T17:57:01.024Z,73.20
2018-08-23T17:59:29.469Z,73.80
2018-08-23T18:01:57.983Z,72.10
2018-08-23T18:04:26.614Z,73.40
2018-08-23T18:06:55.125Z,74.70
2018-08-23T18:09:24.069Z,75.40
2018-08-23T18:11:52.485Z,75.90
2018-08-23T18:14:20.954Z,77.70
2018-08-23T18:16:54.737Z,79.60
2018-08-23T18:19:23.377Z,80.10
2018-08-23T18:21:52.365Z,79.50
2018-08-23T18:24:20.841Z,80.60
2018-08-23T18:26:50.121Z,80.50
2018-08-23T18:29:18.562Z,81.30
2018-08-23T18:31:47.048Z,80.50
2018-08-23T18:34:15.601Z,79.00
2018-08-23T18:36:44.044Z,79.90
2018-08-23T18:39:12.655Z,79.60
2018-08-23T18:41:41.266Z,78.20
2018-08-23T18:44:09.738Z,78.00
2018-08-23T18:46:38.189Z,78.60
2018-08-23T18:49:06.664Z,78.90
2018-08-23T18:51:35.123Z,78.10
2018-08-23T18:54:03.665Z,79.40
2018-08-23T18:56:32.155Z,79.00
2018-08-23T18:59:00.600Z,79.30
2018-08-23T19:01:29.114Z,80.20
2018-08-23T19:03:57.639Z,81.30
2018-08-23T19:06:31.719Z,80.80
2018-08-23T19:09:00.298Z,80.70
2018-08-23T19:11:28.764Z,80.00
2018-08-23T19:13:57.337Z,80.10
2018-08-23T19:16:31.220Z,80.90
2018-08-23T19:18:59.766Z,80.90
2018-08-23T19:21:28.285Z,81.70
2018-08-23T19:23:56.736Z,81.70
2018-08-23T19:26:25.211Z,81.90
2018-08-23T19:28:53.690Z,81.40
2018-08-23T19:31:22.265Z,82.30
2018-08-23T19:33:50.647Z,81.20
2018-08-23T19:36:19.192Z,82.50
2018-08-23T19:38:47.631Z,81.80
2018-08-23T19:41:16.150Z,80.60
2018-08-23T19:43:45.215Z,80.20
2018-08-23T19:46:19.167Z,80.90
2018-08-23T19:48:49.420Z,82.10
2018-08-23T19:51:17.892Z,80.10
2018-08-23T19:53:46.516Z,83.00
2018-08-23T19:56:15.895Z,82.60
2018-08-23T19:58:44.369Z,83.60
2018-08-23T20:01:12.861Z,83.20
2018-08-23T20:03:41.379Z,84.20
2018-08-23T20:06:09.803Z,82.80
2018-08-23T20:08:38.290Z,81.20
2018-08-23T20:11:06.850Z,81.10
2018-08-23T20:13:35.356Z,80.50
2018-08-23T20:16:03.855Z,79.40
2018-08-23T20:18:32.392Z,79.80
2018-08-23T20:21:00.853Z,81.00
2018-08-23T20:23:29.329Z,82.30
2018-08-23T20:25:57.891Z,83.10
2018-08-23T20:28:26.445Z,83.60
2018-08-23T20:30:54.902Z,82.20
2018-08-23T20:33:24.109Z,81.50
2018-08-23T20:35:52.573Z,80.60
2018-08-23T20:38:21.734Z,80.60
2018-08-23T20:40:50.269Z,81.70
2018-08-23T20:43:19.170Z,81.50
2018-08-23T20:45:47.641Z,81.70
2018-08-23T20:48:16.125Z,81.80
2018-08-23T20:50:44.565Z,82.20
2018-08-23T20:53:13.136Z,81.50
2018-08-23T20:55:41.589Z,82.60
2018-08-23T20:58:10.261Z,82.30
2018-08-23T21:00:38.722Z,81.70
2018-08-23T21:03:07.201Z,83.50
2018-08-23T21:05:35.747Z,83.90
2018-08-23T21:08:04.200Z,82.60
2018-08-23T21:10:32.709Z,81.90
2018-08-23T21:13:01.155Z,81.90
2018-08-23T21:15:29.624Z,82.10
2018-08-23T21:17:58.211Z,80.20
2018-08-23T21:20:26.648Z,80.20
2018-08-23T21:22:55.104Z,83.50
2018-08-23T21:25:23.542Z,84.40
2018-08-23T21:27:52.073Z,83.30
2018-08-23T21:30:20.552Z,83.50
2018-08-23T21:32:49.076Z,84.60
2018-08-23T21:35:17.518Z,84.80
2018-08-23T21:37:45.982Z,84.00
2018-08-23T21:40:14.463Z,84.40
2018-08-23T21:42:42.918Z,84.70
2018-08-23T21:45:11.426Z,84.80
2018-08-23T21:47:39.942Z,84.50
2018-08-23T21:50:08.708Z,84.80
2018-08-23T21:52:37.152Z,84.70
2018-08-23T21:55:05.815Z,84.80
2018-08-23T21:57:35.105Z,84.80
2018-08-23T22:00:03.785Z,84.30
2018-08-23T22:02:32.273Z,83.90
2018-08-23T22:05:00.948Z,84.50
2018-08-23T22:07:29.636Z,84.80
2018-08-23T22:09:58.087Z,85.00
2018-08-23T22:12:26.876Z,85.20
2018-08-23T22:14:56.324Z,85.80
2018-08-23T22:17:24.908Z,86.40
2018-08-23T22:19:53.616Z,86.10
2018-08-23T22:22:23.060Z,86.60
2018-08-23T22:24:51.525Z,86.50
2018-08-23T22:27:19.984Z,86.20
2018-08-23T22:29:48.412Z,85.60
2018-08-23T22:32:16.889Z,85.60
2018-08-23T22:34:45.341Z,85.60
2018-08-23T22:37:14.752Z,85.30
2018-08-23T22:39:43.293Z,85.40
2018-08-23T22:42:11.795Z,85.60
2018-08-23T22:44:40.252Z,85.80
2018-08-23T22:47:08.711Z,85.80
2018-08-23T22:49:37.215Z,85.40
2018-08-23T22:52:05.708Z,85.60
2018-08-23T22:54:34.156Z,85.90
2018-08-23T22:57:02.620Z,85.90
2018-08-23T22:59:31.083Z,86.20
2018-08-23T23:01:59.464Z,85.80
2018-08-23T23:04:28.555Z,85.00
2018-08-23T23:06:57.837Z,84.90
2018-08-23T23:09:26.282Z,85.60
2018-08-23T23:11:54.754Z,85.90
2018-08-23T23:14:23.232Z,85.60
2018-08-23T23:16:54.316Z,85.40
2018-08-23T23:19:23.153Z,85.00
2018-08-23T23:21:51.576Z,84.30
2018-08-23T23:24:25.429Z,84.00
2018-08-23T23:26:54.522Z,83.80
2018-08-23T23:29:23.133Z,84.00
2018-08-23T23:31:51.656Z,85.20
2018-08-23T23:34:20.104Z,85.90
2018-08-23T23:36:49.256Z,86.30
2018-08-23T23:39:17.744Z,86.60
2018-08-23T23:41:46.156Z,86.50
2018-08-23T23:44:14.612Z,86.00
2018-08-23T23:46:43.097Z,86.30
2018-08-23T23:49:11.864Z,86.50
2018-08-23T23:51:40.796Z,86.30
2018-08-23T23:54:09.548Z,85.80
2018-08-23T23:56:38.006Z,85.80
2018-08-23T23:59:07.214Z,86.30
